Times Square, Washington
Current Conditions -  °F | °C
As of 3:53 AM on Friday 24 Oct 2014 (Local Time) from KBFI Reporting Station
Overcast Overcast  
Wind Chill: 52°   Ceiling: 4000
Heat Index: 52°   Visibility: 10mi
Dew Point: 46°   Wind: 5mph
Humidity: 80%   Direction: 130°SE
Pressure: 30.04"   Gusts: NA
Location:  47.6115°N, 122.334°W
Report Text: KBFI 241053Z 13004KT 10SM OVC040 11/08 A3004 RMK AO2 RAE0957 SLP173 P0000 T01110078
Loading
Personal Weather Stations






























Interactive Weather Map
Tropical Storm Tracking
New forecast layout! Learn more

10-Day Weather Forecast

Advertisements
Track Severe Weather on mobile